createdAt,value
2022-09-07T00:01:07.493Z,25.60
2022-09-07T00:03:37.583Z,25.55
2022-09-07T00:06:08.977Z,25.45
2022-09-07T00:08:36.875Z,25.27
2022-09-07T00:11:07.610Z,25.35
2022-09-07T00:13:37.857Z,25.19
2022-09-07T00:16:12.068Z,25.21
2022-09-07T00:18:45.094Z,25.24
2022-09-07T00:21:15.238Z,25.08
2022-09-07T00:23:42.716Z,24.97
2022-09-07T00:26:13.756Z,25.18
2022-09-07T00:28:42.336Z,25.03
2022-09-07T00:31:13.527Z,25.06
2022-09-07T00:33:42.126Z,25.01
2022-09-07T00:36:09.785Z,24.87
2022-09-07T00:38:37.831Z,24.84
2022-09-07T00:41:05.923Z,24.77
2022-09-07T00:43:35.205Z,24.94
2022-09-07T00:46:04.508Z,24.87
2022-09-07T00:48:39.723Z,24.88
2022-09-07T00:51:12.177Z,24.96
2022-09-07T00:53:43.835Z,24.86
2022-09-07T00:56:11.910Z,24.79
2022-09-07T00:58:42.735Z,24.59
2022-09-07T01:01:13.970Z,24.56
2022-09-07T01:03:47.700Z,24.50
2022-09-07T01:06:25.242Z,24.48
2022-09-07T01:08:55.027Z,24.58
2022-09-07T01:11:23.022Z,24.61
2022-09-07T01:13:51.961Z,24.55
2022-09-07T01:16:37.998Z,24.66
2022-09-07T01:19:27.181Z,24.60
2022-09-07T01:21:57.494Z,24.65
2022-09-07T01:24:35.425Z,24.67
2022-09-07T01:27:47.601Z,24.63
2022-09-07T01:30:17.953Z,24.73
2022-09-07T01:33:04.477Z,24.78
2022-09-07T01:35:53.599Z,24.84
2022-09-07T01:38:30.378Z,24.75
2022-09-07T01:41:07.823Z,24.58
2022-09-07T01:43:53.497Z,24.62
2022-09-07T01:46:29.474Z,24.71
2022-09-07T01:49:23.015Z,24.77
2022-09-07T01:51:57.218Z,24.74
2022-09-07T01:54:32.091Z,24.74
2022-09-07T01:57:08.970Z,24.65
2022-09-07T01:59:42.731Z,24.55
2022-09-07T02:02:16.787Z,24.58
2022-09-07T02:05:02.109Z,24.47
2022-09-07T02:07:45.388Z,24.43
2022-09-07T02:10:26.860Z,24.38
2022-09-07T02:13:16.584Z,24.32
2022-09-07T02:15:57.917Z,24.33
2022-09-07T02:18:29.667Z,24.28
2022-09-07T02:20:58.154Z,24.15
2022-09-07T02:23:30.745Z,24.09
2022-09-07T02:26:07.334Z,24.08
2022-09-07T02:28:36.755Z,24.21
2022-09-07T02:31:04.681Z,24.42
2022-09-07T02:33:32.299Z,24.29
2022-09-07T02:36:01.727Z,24.02
2022-09-07T02:38:30.233Z,23.92
2022-09-07T02:41:00.639Z,23.90
2022-09-07T02:43:30.392Z,23.88
2022-09-07T02:46:14.927Z,23.89
2022-09-07T02:48:54.505Z,23.81
2022-09-07T02:51:52.348Z,23.71
2022-09-07T02:54:28.783Z,23.71
2022-09-07T02:57:03.913Z,23.59
2022-09-07T03:00:01.513Z,23.60
2022-09-07T03:02:33.008Z,23.58
2022-09-07T03:05:21.623Z,23.62
2022-09-07T03:08:07.440Z,23.62
2022-09-07T03:10:37.779Z,23.60
2022-09-07T03:13:06.186Z,23.58
2022-09-07T03:15:33.668Z,23.62
2022-09-07T03:18:01.462Z,23.42
2022-09-07T03:20:30.864Z,23.36
2022-09-07T03:22:58.278Z,23.40
2022-09-07T03:25:25.696Z,23.39
2022-09-07T03:27:53.254Z,23.42
2022-09-07T03:30:20.751Z,23.47
2022-09-07T03:32:48.375Z,23.58
2022-09-07T03:35:15.948Z,23.63
2022-09-07T03:37:44.111Z,23.64
2022-09-07T03:40:14.248Z,23.67
2022-09-07T03:42:42.009Z,23.53
2022-09-07T03:45:10.555Z,23.55
2022-09-07T03:47:39.015Z,23.52
2022-09-07T03:50:07.519Z,23.52
2022-09-07T03:52:36.378Z,23.55
2022-09-07T03:55:04.991Z,23.58
2022-09-07T03:57:32.424Z,23.57
2022-09-07T03:59:59.869Z,23.59
2022-09-07T04:02:27.454Z,23.54
2022-09-07T04:04:54.932Z,23.64
2022-09-07T04:07:22.481Z,23.72
2022-09-07T04:09:51.460Z,23.68
2022-09-07T04:12:19.060Z,23.68
2022-09-07T04:14:46.554Z,23.52
2022-09-07T04:17:14.063Z,23.43
2022-09-07T04:19:41.628Z,23.35
2022-09-07T04:22:09.085Z,23.21
2022-09-07T04:24:36.564Z,23.09
2022-09-07T04:27:04.123Z,23.20
2022-09-07T04:29:31.560Z,23.09
2022-09-07T04:31:58.970Z,23.04
2022-09-07T04:34:26.418Z,23.06
2022-09-07T04:36:53.860Z,23.14
2022-09-07T04:39:21.273Z,23.03
2022-09-07T04:41:48.679Z,22.95
2022-09-07T04:44:17.125Z,22.95
2022-09-07T04:46:44.793Z,22.99
2022-09-07T04:49:12.340Z,22.98
2022-09-07T04:51:42.650Z,23.27
2022-09-07T04:54:10.782Z,23.12
2022-09-07T04:56:38.243Z,23.02
2022-09-07T04:59:05.813Z,23.07
2022-09-07T05:01:34.210Z,23.10
2022-09-07T05:04:03.354Z,23.09
2022-09-07T05:06:30.910Z,23.18
2022-09-07T05:08:59.167Z,23.03
2022-09-07T05:11:29.471Z,23.17
2022-09-07T05:13:59.596Z,23.29
2022-09-07T05:16:28.755Z,23.31
2022-09-07T05:18:58.896Z,23.36
2022-09-07T05:21:28.968Z,23.42
2022-09-07T05:23:58.098Z,23.37
2022-09-07T05:26:28.036Z,23.41
2022-09-07T05:31:46.575Z,23.37
2022-09-07T05:34:31.241Z,23.42
2022-09-07T05:36:59.755Z,23.49
2022-09-07T05:39:28.267Z,23.58
2022-09-07T05:41:56.457Z,23.59
2022-09-07T05:47:11.958Z,24.17
2022-09-07T05:49:39.519Z,24.29
2022-09-07T05:52:07.056Z,24.43
2022-09-07T05:54:34.801Z,24.57
2022-09-07T05:57:03.653Z,24.48
2022-09-07T05:59:31.392Z,24.46
2022-09-07T06:01:59.594Z,24.62
2022-09-07T06:04:27.146Z,24.70
2022-09-07T06:12:29.690Z,25.07
2022-09-07T06:14:57.215Z,25.43
2022-09-07T06:17:24.678Z,25.50
2022-09-07T06:19:52.236Z,25.71
2022-09-07T06:22:19.682Z,25.86
2022-09-07T06:24:47.136Z,26.02
2022-09-07T06:27:14.602Z,26.27
2022-09-07T06:29:42.211Z,26.02
2022-09-07T06:34:57.280Z,26.84
2022-09-07T06:37:25.061Z,27.89
2022-09-07T06:39:52.607Z,27.87
2022-09-07T06:42:20.072Z,29.00
2022-09-07T06:44:52.660Z,29.60
2022-09-07T06:47:20.571Z,30.56
2022-09-07T06:49:47.967Z,31.28
2022-09-07T06:52:15.425Z,31.70
2022-09-07T06:57:27.100Z,29.35
2022-09-07T06:59:54.696Z,29.24
2022-09-07T07:02:22.119Z,29.58
2022-09-07T07:04:50.420Z,29.85
2022-09-07T07:07:17.930Z,29.29
2022-09-07T07:09:45.417Z,29.45
2022-09-07T07:12:12.853Z,29.31
2022-09-07T07:14:44.651Z,29.26
2022-09-07T07:17:13.224Z,28.60
2022-09-07T07:19:40.826Z,27.74
2022-09-07T07:22:23.960Z,27.99
2022-09-07T07:24:55.894Z,29.48
2022-09-07T07:27:23.452Z,30.64
2022-09-07T07:29:52.456Z,31.57
2022-09-07T07:32:20.119Z,31.96
2022-09-07T07:34:47.543Z,32.21
2022-09-07T07:37:15.976Z,32.52
2022-09-07T07:42:32.565Z,33.23
2022-09-07T07:47:53.527Z,33.44
2022-09-07T07:50:36.262Z,33.59
2022-09-07T07:55:54.133Z,34.34
2022-09-07T07:58:21.761Z,34.58
2022-09-07T08:00:56.984Z,34.91
2022-09-07T08:03:27.217Z,34.70
2022-09-07T08:05:55.482Z,35.57
2022-09-07T08:08:23.745Z,35.33
2022-09-07T08:10:54.025Z,35.07
2022-09-07T08:13:21.625Z,35.79
2022-09-07T08:15:49.792Z,34.44
2022-09-07T08:18:20.075Z,33.82
2022-09-07T08:20:47.383Z,33.34
2022-09-07T08:23:15.433Z,32.44
2022-09-07T08:25:53.581Z,30.96
2022-09-07T08:28:23.456Z,31.63
2022-09-07T08:30:51.032Z,32.01
2022-09-07T08:33:18.772Z,31.10
2022-09-07T08:35:56.303Z,31.45
2022-09-07T08:38:24.260Z,31.54
2022-09-07T08:40:51.903Z,31.46
2022-09-07T08:43:47.132Z,31.35
2022-09-07T08:46:30.991Z,31.30
2022-09-07T08:49:00.031Z,31.36
2022-09-07T08:51:44.174Z,31.36
2022-09-07T08:54:14.106Z,32.46
2022-09-07T08:57:20.537Z,33.86
2022-09-07T08:59:51.289Z,35.06
2022-09-07T09:02:41.994Z,35.00
2022-09-07T09:05:38.172Z,34.20
2022-09-07T09:08:25.148Z,34.31
2022-09-07T09:11:06.058Z,34.23
2022-09-07T09:13:52.355Z,35.36
2022-09-07T09:16:27.032Z,34.63
2022-09-07T09:19:15.461Z,34.83
2022-09-07T09:21:44.281Z,35.11
2022-09-07T09:24:19.883Z,35.83
2022-09-07T09:26:53.113Z,36.02
2022-09-07T09:29:22.923Z,36.38
2022-09-07T09:31:50.174Z,35.33
2022-09-07T09:34:23.795Z,34.99
2022-09-07T09:36:56.682Z,34.72
2022-09-07T09:39:30.942Z,35.14
2022-09-07T09:42:03.377Z,35.15
2022-09-07T09:44:37.497Z,35.38
2022-09-07T09:49:54.448Z,35.60
2022-09-07T09:52:34.812Z,35.04
2022-09-07T10:01:24.806Z,35.20
2022-09-07T10:06:24.420Z,34.41
2022-09-07T10:08:56.540Z,34.38
2022-09-07T10:14:35.323Z,35.01
2022-09-07T10:17:13.205Z,34.72
2022-09-07T10:19:42.965Z,34.76
2022-09-07T10:22:32.202Z,34.51
2022-09-07T10:25:00.947Z,34.77
2022-09-07T10:27:32.020Z,34.11
2022-09-07T10:30:01.277Z,33.42
2022-09-07T10:32:37.524Z,33.02
2022-09-07T10:35:28.101Z,32.55
2022-09-07T10:38:27.712Z,32.69
2022-09-07T10:41:09.738Z,32.95
2022-09-07T10:43:49.838Z,33.25
2022-09-07T10:49:25.337Z,34.03
2022-09-07T10:52:05.441Z,33.61
2022-09-07T10:54:46.804Z,33.20
2022-09-07T10:57:26.817Z,32.87
2022-09-07T11:00:13.502Z,32.28
2022-09-07T11:06:06.617Z,32.44
2022-09-07T11:09:16.654Z,31.53
2022-09-07T11:12:24.909Z,31.90
2022-09-07T11:15:13.201Z,31.30
2022-09-07T11:18:01.274Z,31.36
2022-09-07T11:20:34.496Z,31.19
2022-09-07T11:23:20.410Z,31.86
2022-09-07T11:26:07.496Z,31.95
2022-09-07T11:31:46.057Z,32.25
2022-09-07T11:34:25.991Z,32.34
2022-09-07T11:37:01.007Z,32.00
2022-09-07T11:40:06.424Z,32.11
2022-09-07T11:43:18.758Z,32.13
2022-09-07T11:45:51.321Z,32.22
2022-09-07T11:48:30.451Z,32.26
2022-09-07T11:51:02.651Z,32.19
2022-09-07T11:53:34.470Z,31.73
2022-09-07T11:56:18.173Z,31.51
2022-09-07T11:59:05.665Z,31.18
2022-09-07T12:01:38.842Z,31.54
2022-09-07T12:04:13.204Z,31.13
2022-09-07T12:07:06.943Z,31.48
2022-09-07T12:10:00.801Z,30.80
2022-09-07T12:12:46.736Z,31.06
2022-09-07T12:15:35.009Z,31.21
2022-09-07T12:18:14.446Z,31.43
2022-09-07T12:20:47.847Z,31.41
2022-09-07T12:23:15.086Z,31.27
2022-09-07T12:25:45.763Z,31.03
2022-09-07T12:28:24.643Z,31.00
2022-09-07T12:31:04.537Z,31.04
2022-09-07T12:33:38.863Z,30.81
2022-09-07T12:36:28.014Z,30.90
2022-09-07T12:39:25.261Z,30.67
2022-09-07T12:42:37.885Z,30.72
2022-09-07T12:45:37.723Z,30.65
2022-09-07T12:48:16.187Z,30.65
2022-09-07T12:51:16.052Z,30.47
2022-09-07T12:54:16.762Z,30.61
2022-09-07T13:00:32.489Z,31.24
2022-09-07T13:09:30.550Z,32.00
2022-09-07T13:12:04.832Z,31.96
2022-09-07T13:14:36.963Z,32.01
2022-09-07T13:17:38.879Z,32.11
2022-09-07T13:20:08.918Z,32.01
2022-09-07T13:22:36.201Z,31.85
2022-09-07T13:25:27.182Z,31.70
2022-09-07T13:28:01.636Z,31.50
2022-09-07T13:30:34.726Z,31.54
2022-09-07T13:33:24.132Z,31.45
2022-09-07T13:35:54.289Z,31.54
2022-09-07T13:38:21.791Z,31.39
2022-09-07T13:40:52.484Z,31.07
2022-09-07T13:43:25.383Z,30.81
2022-09-07T13:45:55.875Z,30.86
2022-09-07T13:48:35.523Z,31.25
2022-09-07T13:51:13.245Z,31.01
2022-09-07T13:53:56.419Z,30.65
2022-09-07T13:56:39.265Z,30.60
2022-09-07T13:59:22.684Z,30.55
2022-09-07T14:01:50.747Z,30.64
2022-09-07T14:04:32.255Z,30.81
2022-09-07T14:07:06.595Z,30.69
2022-09-07T14:09:34.911Z,30.61
2022-09-07T14:12:02.434Z,30.54
2022-09-07T14:14:32.961Z,30.57
2022-09-07T14:17:00.194Z,30.62
2022-09-07T14:19:33.738Z,30.39
2022-09-07T14:22:07.176Z,30.31
2022-09-07T14:24:40.531Z,30.20
2022-09-07T14:27:20.694Z,30.42
2022-09-07T14:29:48.482Z,30.42
2022-09-07T14:32:24.563Z,30.49
2022-09-07T14:34:52.499Z,30.62
2022-09-07T14:37:21.894Z,30.53
2022-09-07T14:39:50.831Z,30.50
2022-09-07T14:42:23.754Z,30.40
2022-09-07T14:45:11.570Z,30.39
2022-09-07T14:47:40.660Z,30.33
2022-09-07T14:50:20.367Z,30.36
2022-09-07T14:53:34.288Z,30.58
2022-09-07T14:55:40.675Z,30.51
2022-09-07T14:58:22.839Z,30.36
2022-09-07T15:03:57.464Z,30.42
2022-09-07T15:09:30.727Z,30.47
2022-09-07T15:12:36.101Z,30.35
2022-09-07T15:15:27.090Z,30.30
2022-09-07T15:18:01.861Z,30.31
2022-09-07T15:20:41.700Z,30.56
2022-09-07T15:23:17.482Z,30.50
2022-09-07T15:25:51.968Z,30.48
2022-09-07T15:34:11.544Z,30.48
2022-09-07T15:36:42.896Z,30.68
2022-09-07T15:39:19.955Z,30.47
2022-09-07T15:41:47.490Z,30.66
2022-09-07T15:44:16.018Z,30.40
2022-09-07T15:47:43.177Z,30.27
2022-09-07T15:49:31.707Z,30.10
2022-09-07T15:52:06.611Z,30.17
2022-09-07T15:54:39.225Z,30.23
2022-09-07T15:59:54.284Z,30.31
2022-09-07T16:05:12.252Z,30.39
2022-09-07T16:10:31.136Z,30.37
2022-09-07T16:13:01.207Z,30.24
2022-09-07T16:15:31.317Z,30.25
2022-09-07T16:17:58.776Z,30.02
2022-09-07T16:20:26.860Z,29.98
2022-09-07T16:25:43.291Z,29.95
2022-09-07T16:28:11.116Z,29.89
2022-09-07T16:30:40.675Z,29.86
2022-09-07T16:33:08.468Z,29.85
2022-09-07T16:35:38.007Z,29.74
2022-09-07T16:40:52.823Z,29.65
2022-09-07T16:43:20.533Z,29.66
2022-09-07T16:46:03.219Z,29.72
2022-09-07T16:48:32.302Z,29.64
2022-09-07T16:51:02.550Z,29.73
2022-09-07T16:53:32.238Z,29.57
2022-09-07T16:56:04.799Z,29.27
2022-09-07T16:58:37.662Z,29.10
2022-09-07T17:01:06.762Z,29.00
2022-09-07T17:03:35.791Z,28.93
2022-09-07T17:06:06.198Z,29.16
2022-09-07T17:08:34.718Z,29.25
2022-09-07T17:11:06.141Z,29.09
2022-09-07T17:13:34.729Z,29.32
2022-09-07T17:16:13.747Z,29.20
2022-09-07T17:21:37.043Z,28.90
2022-09-07T17:24:06.511Z,28.73
2022-09-07T17:26:34.364Z,28.70
2022-09-07T17:29:02.042Z,28.75
2022-09-07T17:34:22.062Z,28.41
2022-09-07T17:36:49.501Z,28.43
2022-09-07T17:39:18.639Z,28.43
2022-09-07T17:41:48.332Z,28.29
2022-09-07T17:44:16.050Z,28.14
2022-09-07T17:46:43.557Z,27.94
2022-09-07T17:49:13.943Z,27.94
2022-09-07T17:51:41.441Z,27.96
2022-09-07T17:54:13.462Z,27.91
2022-09-07T17:56:41.764Z,27.88
2022-09-07T18:01:58.820Z,27.90
2022-09-07T18:04:26.435Z,27.78
2022-09-07T18:06:54.525Z,27.82
2022-09-07T18:09:21.941Z,27.67
2022-09-07T18:11:50.310Z,27.67
2022-09-07T18:14:19.032Z,27.79
2022-09-07T18:16:49.219Z,27.91
2022-09-07T18:19:18.230Z,27.72
2022-09-07T18:21:48.922Z,27.59
2022-09-07T18:24:19.905Z,27.58
2022-09-07T18:26:50.460Z,27.57
2022-09-07T18:29:36.831Z,27.49
2022-09-07T18:32:09.392Z,27.43
2022-09-07T18:34:40.673Z,27.46
2022-09-07T18:37:08.924Z,27.23
2022-09-07T18:39:36.721Z,27.20
2022-09-07T18:42:04.270Z,26.96
2022-09-07T18:47:28.951Z,26.90
2022-09-07T18:49:57.538Z,26.69
2022-09-07T18:55:13.008Z,26.80
2022-09-07T18:57:40.294Z,26.69
2022-09-07T19:00:09.486Z,26.70
2022-09-07T19:02:37.190Z,26.56
2022-09-07T19:07:53.328Z,26.56
2022-09-07T19:10:20.841Z,26.35
2022-09-07T19:12:48.068Z,26.49
2022-09-07T19:15:15.666Z,26.35
2022-09-07T19:17:44.270Z,26.29
2022-09-07T19:20:11.862Z,26.31
2022-09-07T19:22:39.341Z,26.13
2022-09-07T19:25:06.953Z,26.34
2022-09-07T19:27:34.444Z,26.19
2022-09-07T19:30:01.882Z,26.20
2022-09-07T19:32:29.282Z,26.17
2022-09-07T19:34:56.846Z,26.15
2022-09-07T19:37:25.521Z,26.11
2022-09-07T19:39:56.636Z,26.16
2022-09-07T19:42:25.303Z,26.18
2022-09-07T19:44:53.830Z,26.02
2022-09-07T19:47:21.979Z,25.96
2022-09-07T19:49:49.342Z,25.89
2022-09-07T19:52:16.662Z,25.94
2022-09-07T19:54:43.994Z,25.93
2022-09-07T19:57:11.449Z,25.97
2022-09-07T19:59:38.787Z,26.00
2022-09-07T20:02:07.163Z,25.89
2022-09-07T20:04:35.830Z,25.95
2022-09-07T20:07:06.622Z,25.92
2022-09-07T20:09:34.247Z,25.83
2022-09-07T20:12:03.723Z,25.85
2022-09-07T20:14:31.050Z,25.72
2022-09-07T20:16:58.429Z,25.73
2022-09-07T20:19:25.839Z,25.73
2022-09-07T20:21:56.094Z,25.70
2022-09-07T20:24:23.424Z,25.88
2022-09-07T20:26:50.768Z,25.96
2022-09-07T20:29:27.820Z,25.82
2022-09-07T20:31:59.371Z,25.83
2022-09-07T20:34:28.050Z,25.72
2022-09-07T20:36:56.846Z,25.74
2022-09-07T20:39:24.268Z,25.84
2022-09-07T20:41:51.804Z,25.91
2022-09-07T20:44:19.306Z,25.86
2022-09-07T20:46:46.723Z,25.89
2022-09-07T20:49:14.009Z,25.82
2022-09-07T20:51:41.444Z,25.87
2022-09-07T20:54:08.658Z,25.77
2022-09-07T20:56:35.926Z,25.61
2022-09-07T20:59:03.954Z,25.73
2022-09-07T21:01:32.619Z,25.67
2022-09-07T21:04:01.291Z,25.61
2022-09-07T21:06:29.578Z,25.51
2022-09-07T21:08:57.985Z,25.50
2022-09-07T21:11:31.165Z,25.59
2022-09-07T21:14:06.991Z,25.51
2022-09-07T21:16:35.358Z,25.70
2022-09-07T21:19:05.140Z,25.52
2022-09-07T21:21:39.333Z,25.47
2022-09-07T21:24:15.076Z,25.53
2022-09-07T21:26:42.439Z,25.46
2022-09-07T21:29:15.732Z,25.56
2022-09-07T21:31:46.380Z,25.66
2022-09-07T21:34:14.941Z,25.64
2022-09-07T21:36:42.720Z,25.62
2022-09-07T21:39:13.843Z,25.41
2022-09-07T21:41:43.102Z,25.42
2022-09-07T21:44:13.047Z,25.43
2022-09-07T21:46:41.521Z,25.42
2022-09-07T21:49:11.733Z,25.38
2022-09-07T21:51:39.225Z,25.37
2022-09-07T21:54:07.674Z,25.25
2022-09-07T21:56:35.052Z,25.23
2022-09-07T21:59:02.759Z,25.13
2022-09-07T22:01:30.878Z,25.18
2022-09-07T22:04:00.908Z,25.18
2022-09-07T22:06:29.207Z,25.09
2022-09-07T22:08:56.873Z,25.10
2022-09-07T22:11:26.204Z,25.21
2022-09-07T22:13:55.664Z,25.22
2022-09-07T22:16:23.355Z,25.15
2022-09-07T22:18:50.778Z,25.11
2022-09-07T22:21:29.112Z,25.20
2022-09-07T22:24:02.179Z,25.11
2022-09-07T22:26:35.281Z,25.02
2022-09-07T22:29:02.787Z,24.89
2022-09-07T22:31:32.405Z,24.89
2022-09-07T22:34:01.940Z,24.92
2022-09-07T22:36:32.787Z,24.91
2022-09-07T22:39:03.501Z,24.98
2022-09-07T22:41:34.100Z,24.92
2022-09-07T22:44:20.286Z,24.89
2022-09-07T22:46:50.347Z,25.02
2022-09-07T22:49:18.048Z,24.86
2022-09-07T22:51:45.750Z,24.85
2022-09-07T22:54:13.221Z,24.96
2022-09-07T22:56:40.927Z,24.84
2022-09-07T22:59:09.387Z,24.83
2022-09-07T23:01:37.396Z,24.81
2022-09-07T23:04:05.042Z,24.82
2022-09-07T23:06:37.821Z,24.68
2022-09-07T23:09:12.384Z,24.73
2022-09-07T23:11:39.749Z,24.78
2022-09-07T23:14:11.917Z,24.78
2022-09-07T23:16:39.518Z,24.74
2022-09-07T23:19:06.967Z,24.75
2022-09-07T23:21:34.227Z,24.77
2022-09-07T23:24:02.098Z,24.67
2022-09-07T23:26:31.356Z,24.57
2022-09-07T23:29:04.792Z,24.66
2022-09-07T23:31:34.898Z,24.68
2022-09-07T23:34:02.874Z,24.66
2022-09-07T23:36:30.807Z,24.62
2022-09-07T23:38:59.517Z,24.62
2022-09-07T23:41:27.824Z,24.73
2022-09-07T23:43:55.376Z,24.70
2022-09-07T23:46:23.463Z,24.74
2022-09-07T23:48:51.159Z,24.64
2022-09-07T23:51:23.535Z,24.57
2022-09-07T23:53:52.862Z,24.45
2022-09-07T23:56:21.565Z,24.45
2022-09-07T23:58:48.857Z,24.40
